This is the latest recevied weather packets stored in our database for station/object KD8OZS. If no packets are shown the sender has not sent any weather packets the latest 10 day(s).
| Time | Temp. | Humidity | Pressure | Rain* | Wind** | Luminosity | Snow |
|---|---|---|---|---|---|---|---|
| 1778193313 | 13.33° C | 43% | 1005.2 hPa | 0 mm | - | 73 W/m² | - |
| 1778193010 | 13.33° C | 47% | 1005.2 hPa | 0 mm | - | 55 W/m² | - |
| 1778192708 | 13.33° C | 44% | 1005.3 hPa | 0 mm | - | 96 W/m² | - |
| 1778192403 | 13.33° C | 46% | 1005.2 hPa | 0 mm | - | 79 W/m² | - |
| 1778192100 | 13.33° C | 43% | 1005.2 hPa | 0 mm | - | 101 W/m² | - |
| 1778191797 | 13.33° C | 43% | 1005.2 hPa | 0 mm | - | 95 W/m² | - |
| 1778191494 | 13.89° C | 42% | 1005.1 hPa | 0 mm | - | 96 W/m² | - |
| 1778191191 | 13.33° C | 48% | 1005.1 hPa | 0 mm | - | 91 W/m² | - |
| 1778190887 | 13.89° C | 44% | 1005 hPa | 0 mm | - | 74 W/m² | - |
| 1778190585 | 14.44° C | 43% | 1005 hPa | 0 mm | - | 112 W/m² | - |
| 1778190282 | 13.89° C | 44% | 1005 hPa | 0 mm | - | 125 W/m² | - |
| 1778189978 | 13.89° C | 42% | 1005 hPa | 0 mm | - | 129 W/m² | - |
| 1778189674 | 13.89° C | 45% | 1005.1 hPa | 0 mm | - | 123 W/m² | - |
| 1778189372 | 15° C | 44% | 1005.1 hPa | 0 mm | - | 424 W/m² | - |
| 1778189067 | 14.44° C | 43% | 1005.2 hPa | 0 mm | - | 421 W/m² | - |
| 1778188764 | 14.44° C | 43% | 1004.8 hPa | 0 mm | - | 413 W/m² | - |
| 1778188461 | 14.44° C | 43% | 1004.8 hPa | 0 mm | - | 442 W/m² | - |
| 1778188158 | 13.89° C | 45% | 1004.8 hPa | 0 mm | - | 487 W/m² | - |
| 1778187855 | 14.44° C | 46% | 1005 hPa | 0 mm | - | 505 W/m² | - |
| 1778187551 | 14.44° C | 45% | 1004.8 hPa | 0 mm | - | 479 W/m² | - |
| 1778187249 | 14.44° C | 46% | 1004.8 hPa | 0 mm | - | 476 W/m² | - |
| 1778186944 | 14.44° C | 46% | 1004.8 hPa | 0 mm | - | 491 W/m² | - |
| 1778186641 | 14.44° C | 46% | 1004.7 hPa | 0 mm | - | 497 W/m² | - |
| 1778186339 | 13.89° C | 49% | 1004.7 hPa | 0 mm | - | 533 W/m² | - |
| 1778186037 | 15° C | 46% | 1005 hPa | 0 mm | - | 537 W/m² | - |
* Rain latest hour (hover to see other rain measurements)
** Current wind speed in m/s (hover to see current wind gust speed)